sensor_id;sensor_type;location;lat;lon;timestamp;P1;durP1;ratioP1;P2;durP2;ratioP2
59585;SDS011;45408;52.686;7.310;2024-03-02T00:00:52;4.90;;;3.72;;
59585;SDS011;45408;52.686;7.310;2024-03-02T00:03:19;7.90;;;5.28;;
59585;SDS011;45408;52.686;7.310;2024-03-02T00:05:50;7.70;;;3.83;;
59585;SDS011;45408;52.686;7.310;2024-03-02T00:08:20;7.25;;;3.95;;
59585;SDS011;45408;52.686;7.310;2024-03-02T00:10:50;8.60;;;4.20;;
59585;SDS011;45408;52.686;7.310;2024-03-02T00:13:18;7.88;;;4.28;;
59585;SDS011;45408;52.686;7.310;2024-03-02T00:15:51;6.18;;;3.78;;
59585;SDS011;45408;52.686;7.310;2024-03-02T00:18:20;8.70;;;3.85;;
59585;SDS011;45408;52.686;7.310;2024-03-02T00:20:47;9.48;;;4.13;;
59585;SDS011;45408;52.686;7.310;2024-03-02T00:23:14;6.20;;;4.40;;
59585;SDS011;45408;52.686;7.310;2024-03-02T00:25:43;8.20;;;4.57;;
59585;SDS011;45408;52.686;7.310;2024-03-02T00:28:11;7.25;;;4.18;;
59585;SDS011;45408;52.686;7.310;2024-03-02T00:33:10;7.50;;;4.07;;
59585;SDS011;45408;52.686;7.310;2024-03-02T00:35:37;6.45;;;3.33;;
59585;SDS011;45408;52.686;7.310;2024-03-02T00:38:04;7.03;;;4.05;;
59585;SDS011;45408;52.686;7.310;2024-03-02T00:40:32;5.53;;;4.07;;
59585;SDS011;45408;52.686;7.310;2024-03-02T00:42:59;6.97;;;4.35;;
59585;SDS011;45408;52.686;7.310;2024-03-02T00:45:25;5.85;;;4.00;;
59585;SDS011;45408;52.686;7.310;2024-03-02T00:47:52;5.82;;;4.13;;
59585;SDS011;45408;52.686;7.310;2024-03-02T00:50:19;5.72;;;4.18;;
59585;SDS011;45408;52.686;7.310;2024-03-02T00:52:56;6.50;;;4.03;;
59585;SDS011;45408;52.686;7.310;2024-03-02T00:55:22;7.75;;;3.72;;
59585;SDS011;45408;52.686;7.310;2024-03-02T00:57:49;5.90;;;3.88;;
59585;SDS011;45408;52.686;7.310;2024-03-02T01:00:15;6.25;;;3.30;;
59585;SDS011;45408;52.686;7.310;2024-03-02T01:02:44;5.63;;;3.38;;
59585;SDS011;45408;52.686;7.310;2024-03-02T01:05:12;5.93;;;3.85;;
59585;SDS011;45408;52.686;7.310;2024-03-02T01:07:38;6.85;;;3.60;;
59585;SDS011;45408;52.686;7.310;2024-03-02T01:10:05;5.70;;;3.63;;
59585;SDS011;45408;52.686;7.310;2024-03-02T01:12:32;4.20;;;3.28;;
59585;SDS011;45408;52.686;7.310;2024-03-02T01:14:58;6.85;;;3.97;;
59585;SDS011;45408;52.686;7.310;2024-03-02T01:17:25;4.65;;;2.75;;
59585;SDS011;45408;52.686;7.310;2024-03-02T01:19:51;4.32;;;3.33;;
59585;SDS011;45408;52.686;7.310;2024-03-02T01:22:18;4.28;;;2.92;;
59585;SDS011;45408;52.686;7.310;2024-03-02T01:24:51;5.00;;;3.10;;
59585;SDS011;45408;52.686;7.310;2024-03-02T01:27:17;8.63;;;2.78;;
59585;SDS011;45408;52.686;7.310;2024-03-02T01:29:45;3.88;;;3.00;;
59585;SDS011;45408;52.686;7.310;2024-03-02T01:32:11;4.10;;;2.78;;
59585;SDS011;45408;52.686;7.310;2024-03-02T01:34:38;5.15;;;3.00;;
59585;SDS011;45408;52.686;7.310;2024-03-02T01:37:04;5.28;;;3.30;;
59585;SDS011;45408;52.686;7.310;2024-03-02T01:39:31;5.03;;;3.25;;
59585;SDS011;45408;52.686;7.310;2024-03-02T01:41:57;5.07;;;3.40;;
59585;SDS011;45408;52.686;7.310;2024-03-02T01:44:24;4.45;;;3.00;;
59585;SDS011;45408;52.686;7.310;2024-03-02T01:46:50;4.78;;;2.70;;
59585;SDS011;45408;52.686;7.310;2024-03-02T01:49:17;4.78;;;3.03;;
59585;SDS011;45408;52.686;7.310;2024-03-02T01:51:44;4.15;;;3.10;;
59585;SDS011;45408;52.686;7.310;2024-03-02T01:54:11;5.38;;;2.60;;
59585;SDS011;45408;52.686;7.310;2024-03-02T01:56:37;4.85;;;2.83;;
59585;SDS011;45408;52.686;7.310;2024-03-02T01:59:04;4.50;;;2.50;;
59585;SDS011;45408;52.686;7.310;2024-03-02T02:01:30;4.80;;;2.80;;
59585;SDS011;45408;52.686;7.310;2024-03-02T02:03:57;4.28;;;2.95;;
59585;SDS011;45408;52.686;7.310;2024-03-02T02:06:24;4.25;;;2.70;;
59585;SDS011;45408;52.686;7.310;2024-03-02T02:08:50;5.45;;;2.83;;
59585;SDS011;45408;52.686;7.310;2024-03-02T02:11:17;3.75;;;2.55;;
59585;SDS011;45408;52.686;7.310;2024-03-02T02:13:44;5.03;;;2.38;;
59585;SDS011;45408;52.686;7.310;2024-03-02T02:16:10;5.10;;;2.85;;
59585;SDS011;45408;52.686;7.310;2024-03-02T02:18:37;3.60;;;2.55;;
59585;SDS011;45408;52.686;7.310;2024-03-02T02:21:04;5.15;;;2.78;;
59585;SDS011;45408;52.686;7.310;2024-03-02T02:23:30;3.80;;;2.55;;
59585;SDS011;45408;52.686;7.310;2024-03-02T02:25:57;5.57;;;2.78;;
59585;SDS011;45408;52.686;7.310;2024-03-02T02:28:23;3.58;;;2.58;;
59585;SDS011;45408;52.686;7.310;2024-03-02T02:30:50;3.63;;;2.67;;
59585;SDS011;45408;52.686;7.310;2024-03-02T02:33:16;4.40;;;2.88;;
59585;SDS011;45408;52.686;7.310;2024-03-02T02:35:43;4.88;;;2.70;;
59585;SDS011;45408;52.686;7.310;2024-03-02T02:38:10;3.90;;;2.38;;
59585;SDS011;45408;52.686;7.310;2024-03-02T02:40:36;3.13;;;2.58;;
59585;SDS011;45408;52.686;7.310;2024-03-02T02:43:03;3.63;;;2.78;;
59585;SDS011;45408;52.686;7.310;2024-03-02T02:45:29;5.35;;;3.05;;
59585;SDS011;45408;52.686;7.310;2024-03-02T02:47:57;4.45;;;2.85;;
59585;SDS011;45408;52.686;7.310;2024-03-02T02:50:23;4.82;;;2.90;;
59585;SDS011;45408;52.686;7.310;2024-03-02T02:52:49;4.07;;;2.85;;
59585;SDS011;45408;52.686;7.310;2024-03-02T02:55:16;4.63;;;2.50;;
59585;SDS011;45408;52.686;7.310;2024-03-02T02:57:43;3.83;;;3.00;;
59585;SDS011;45408;52.686;7.310;2024-03-02T03:00:11;3.45;;;2.55;;
59585;SDS011;45408;52.686;7.310;2024-03-02T03:02:48;5.28;;;3.50;;
59585;SDS011;45408;52.686;7.310;2024-03-02T03:05:17;5.22;;;2.75;;
59585;SDS011;45408;52.686;7.310;2024-03-02T03:07:44;3.97;;;2.47;;
59585;SDS011;45408;52.686;7.310;2024-03-02T03:10:11;5.38;;;3.03;;
59585;SDS011;45408;52.686;7.310;2024-03-02T03:12:38;4.22;;;2.78;;
59585;SDS011;45408;52.686;7.310;2024-03-02T03:15:05;3.90;;;3.03;;
59585;SDS011;45408;52.686;7.310;2024-03-02T03:17:33;4.72;;;3.05;;
59585;SDS011;45408;52.686;7.310;2024-03-02T03:19:59;4.85;;;3.03;;
59585;SDS011;45408;52.686;7.310;2024-03-02T03:22:27;6.13;;;3.13;;
59585;SDS011;45408;52.686;7.310;2024-03-02T03:24:53;6.20;;;3.40;;
59585;SDS011;45408;52.686;7.310;2024-03-02T03:27:20;3.95;;;2.67;;
59585;SDS011;45408;52.686;7.310;2024-03-02T03:29:46;7.28;;;3.20;;
59585;SDS011;45408;52.686;7.310;2024-03-02T03:32:13;5.25;;;3.28;;
59585;SDS011;45408;52.686;7.310;2024-03-02T03:34:40;5.07;;;2.85;;
59585;SDS011;45408;52.686;7.310;2024-03-02T03:37:07;5.10;;;2.80;;
59585;SDS011;45408;52.686;7.310;2024-03-02T03:39:33;4.15;;;2.60;;
59585;SDS011;45408;52.686;7.310;2024-03-02T03:42:01;4.22;;;3.00;;
59585;SDS011;45408;52.686;7.310;2024-03-02T03:44:28;4.15;;;2.72;;
59585;SDS011;45408;52.686;7.310;2024-03-02T03:46:54;6.25;;;2.75;;
59585;SDS011;45408;52.686;7.310;2024-03-02T03:49:21;5.72;;;3.90;;
59585;SDS011;45408;52.686;7.310;2024-03-02T03:51:48;6.18;;;3.33;;
59585;SDS011;45408;52.686;7.310;2024-03-02T03:54:14;5.47;;;3.13;;
59585;SDS011;45408;52.686;7.310;2024-03-02T03:56:41;3.47;;;2.45;;
59585;SDS011;45408;52.686;7.310;2024-03-02T03:59:07;3.45;;;2.78;;
59585;SDS011;45408;52.686;7.310;2024-03-02T04:01:34;4.60;;;2.90;;
59585;SDS011;45408;52.686;7.310;2024-03-02T04:04:00;2.60;;;2.10;;
59585;SDS011;45408;52.686;7.310;2024-03-02T04:06:29;4.10;;;2.72;;
59585;SDS011;45408;52.686;7.310;2024-03-02T04:08:56;7.05;;;3.08;;
59585;SDS011;45408;52.686;7.310;2024-03-02T04:11:23;3.50;;;2.88;;
59585;SDS011;45408;52.686;7.310;2024-03-02T04:13:49;4.65;;;3.22;;
59585;SDS011;45408;52.686;7.310;2024-03-02T04:16:16;4.13;;;3.08;;
59585;SDS011;45408;52.686;7.310;2024-03-02T04:18:42;5.22;;;2.95;;
59585;SDS011;45408;52.686;7.310;2024-03-02T04:21:09;4.72;;;2.50;;
59585;SDS011;45408;52.686;7.310;2024-03-02T04:23:36;4.68;;;3.08;;
59585;SDS011;45408;52.686;7.310;2024-03-02T04:26:02;4.00;;;2.58;;
59585;SDS011;45408;52.686;7.310;2024-03-02T04:28:29;5.53;;;2.80;;
59585;SDS011;45408;52.686;7.310;2024-03-02T04:30:55;3.70;;;2.72;;
59585;SDS011;45408;52.686;7.310;2024-03-02T04:33:22;4.32;;;2.53;;
59585;SDS011;45408;52.686;7.310;2024-03-02T04:35:49;3.58;;;2.22;;
59585;SDS011;45408;52.686;7.310;2024-03-02T04:38:15;5.10;;;3.15;;
59585;SDS011;45408;52.686;7.310;2024-03-02T04:40:42;5.15;;;3.03;;
59585;SDS011;45408;52.686;7.310;2024-03-02T04:43:08;5.22;;;3.40;;
59585;SDS011;45408;52.686;7.310;2024-03-02T04:45:38;5.43;;;2.80;;
59585;SDS011;45408;52.686;7.310;2024-03-02T04:48:05;7.15;;;2.83;;
59585;SDS011;45408;52.686;7.310;2024-03-02T04:50:32;6.05;;;3.15;;
59585;SDS011;45408;52.686;7.310;2024-03-02T04:52:59;4.88;;;3.08;;
59585;SDS011;45408;52.686;7.310;2024-03-02T04:55:25;5.28;;;2.83;;
59585;SDS011;45408;52.686;7.310;2024-03-02T04:57:55;5.03;;;3.53;;
59585;SDS011;45408;52.686;7.310;2024-03-02T05:00:22;3.67;;;2.88;;
59585;SDS011;45408;52.686;7.310;2024-03-02T05:02:49;6.07;;;3.50;;
59585;SDS011;45408;52.686;7.310;2024-03-02T05:05:16;7.18;;;3.42;;
59585;SDS011;45408;52.686;7.310;2024-03-02T05:07:42;5.63;;;3.38;;
59585;SDS011;45408;52.686;7.310;2024-03-02T05:10:10;5.22;;;2.90;;
59585;SDS011;45408;52.686;7.310;2024-03-02T05:12:37;5.32;;;3.33;;
59585;SDS011;45408;52.686;7.310;2024-03-02T05:15:07;5.45;;;2.63;;
59585;SDS011;45408;52.686;7.310;2024-03-02T05:17:34;6.85;;;3.30;;
59585;SDS011;45408;52.686;7.310;2024-03-02T05:20:00;5.20;;;3.28;;
59585;SDS011;45408;52.686;7.310;2024-03-02T05:22:27;9.20;;;3.50;;
59585;SDS011;45408;52.686;7.310;2024-03-02T05:24:54;4.93;;;3.00;;
59585;SDS011;45408;52.686;7.310;2024-03-02T05:27:21;5.18;;;3.42;;
59585;SDS011;45408;52.686;7.310;2024-03-02T05:29:47;5.55;;;3.13;;
59585;SDS011;45408;52.686;7.310;2024-03-02T05:32:14;4.15;;;3.03;;
59585;SDS011;45408;52.686;7.310;2024-03-02T05:34:40;5.72;;;3.50;;
59585;SDS011;45408;52.686;7.310;2024-03-02T05:37:07;5.05;;;3.40;;
59585;SDS011;45408;52.686;7.310;2024-03-02T05:39:33;4.57;;;3.20;;
59585;SDS011;45408;52.686;7.310;2024-03-02T05:42:00;5.38;;;3.30;;
59585;SDS011;45408;52.686;7.310;2024-03-02T05:44:27;5.82;;;3.45;;
59585;SDS011;45408;52.686;7.310;2024-03-02T05:46:53;5.47;;;3.33;;
59585;SDS011;45408;52.686;7.310;2024-03-02T05:49:20;4.88;;;3.33;;
59585;SDS011;45408;52.686;7.310;2024-03-02T05:51:46;6.35;;;3.10;;
59585;SDS011;45408;52.686;7.310;2024-03-02T05:54:13;6.03;;;3.97;;
59585;SDS011;45408;52.686;7.310;2024-03-02T05:56:39;6.18;;;3.33;;
59585;SDS011;45408;52.686;7.310;2024-03-02T05:59:06;6.97;;;3.90;;
59585;SDS011;45408;52.686;7.310;2024-03-02T06:01:43;4.90;;;3.55;;
59585;SDS011;45408;52.686;7.310;2024-03-02T06:04:10;5.85;;;4.05;;
59585;SDS011;45408;52.686;7.310;2024-03-02T06:06:37;6.82;;;3.80;;
59585;SDS011;45408;52.686;7.310;2024-03-02T06:09:04;5.93;;;3.65;;
59585;SDS011;45408;52.686;7.310;2024-03-02T06:11:40;5.70;;;3.55;;
59585;SDS011;45408;52.686;7.310;2024-03-02T06:14:08;5.25;;;3.22;;
59585;SDS011;45408;52.686;7.310;2024-03-02T06:16:35;4.90;;;3.10;;
59585;SDS011;45408;52.686;7.310;2024-03-02T06:19:01;5.57;;;3.80;;
59585;SDS011;45408;52.686;7.310;2024-03-02T06:21:28;6.28;;;3.47;;
59585;SDS011;45408;52.686;7.310;2024-03-02T06:23:55;5.32;;;3.55;;
59585;SDS011;45408;52.686;7.310;2024-03-02T06:26:22;6.32;;;3.90;;
59585;SDS011;45408;52.686;7.310;2024-03-02T06:28:51;6.45;;;3.88;;
59585;SDS011;45408;52.686;7.310;2024-03-02T06:31:18;6.45;;;3.70;;
59585;SDS011;45408;52.686;7.310;2024-03-02T06:33:44;4.90;;;3.13;;
59585;SDS011;45408;52.686;7.310;2024-03-02T06:36:11;7.32;;;3.22;;
59585;SDS011;45408;52.686;7.310;2024-03-02T06:38:38;6.63;;;3.85;;
59585;SDS011;45408;52.686;7.310;2024-03-02T06:41:08;8.98;;;3.40;;
59585;SDS011;45408;52.686;7.310;2024-03-02T06:43:35;6.47;;;3.38;;
59585;SDS011;45408;52.686;7.310;2024-03-02T06:46:01;6.15;;;3.78;;
59585;SDS011;45408;52.686;7.310;2024-03-02T06:48:28;6.80;;;4.20;;
59585;SDS011;45408;52.686;7.310;2024-03-02T06:50:56;7.57;;;4.22;;
59585;SDS011;45408;52.686;7.310;2024-03-02T06:53:23;5.63;;;3.53;;
59585;SDS011;45408;52.686;7.310;2024-03-02T06:55:50;7.88;;;4.20;;
59585;SDS011;45408;52.686;7.310;2024-03-02T06:58:16;5.85;;;4.15;;
59585;SDS011;45408;52.686;7.310;2024-03-02T07:00:43;6.75;;;3.33;;
59585;SDS011;45408;52.686;7.310;2024-03-02T07:03:10;7.95;;;3.47;;
59585;SDS011;45408;52.686;7.310;2024-03-02T07:05:36;8.45;;;3.58;;
59585;SDS011;45408;52.686;7.310;2024-03-02T07:08:03;5.70;;;3.20;;
59585;SDS011;45408;52.686;7.310;2024-03-02T07:10:31;8.65;;;4.00;;
59585;SDS011;45408;52.686;7.310;2024-03-02T07:12:58;6.55;;;4.32;;
59585;SDS011;45408;52.686;7.310;2024-03-02T07:15:24;5.55;;;3.70;;
59585;SDS011;45408;52.686;7.310;2024-03-02T07:17:54;7.82;;;4.53;;
59585;SDS011;45408;52.686;7.310;2024-03-02T07:20:20;8.48;;;4.47;;
59585;SDS011;45408;52.686;7.310;2024-03-02T07:22:47;6.15;;;3.90;;
59585;SDS011;45408;52.686;7.310;2024-03-02T07:25:14;6.53;;;3.83;;
59585;SDS011;45408;52.686;7.310;2024-03-02T07:27:43;8.75;;;5.10;;
59585;SDS011;45408;52.686;7.310;2024-03-02T07:30:13;7.65;;;4.30;;
59585;SDS011;45408;52.686;7.310;2024-03-02T07:32:40;9.57;;;4.22;;
59585;SDS011;45408;52.686;7.310;2024-03-02T07:35:08;7.55;;;3.90;;
59585;SDS011;45408;52.686;7.310;2024-03-02T07:37:35;6.57;;;3.80;;
59585;SDS011;45408;52.686;7.310;2024-03-02T07:40:01;4.43;;;3.17;;
59585;SDS011;45408;52.686;7.310;2024-03-02T07:42:29;5.25;;;3.65;;
59585;SDS011;45408;52.686;7.310;2024-03-02T07:44:55;6.25;;;3.88;;
59585;SDS011;45408;52.686;7.310;2024-03-02T07:47:22;5.45;;;3.55;;
59585;SDS011;45408;52.686;7.310;2024-03-02T07:49:48;5.65;;;3.85;;
59585;SDS011;45408;52.686;7.310;2024-03-02T07:52:15;5.43;;;3.58;;
59585;SDS011;45408;52.686;7.310;2024-03-02T07:54:41;6.50;;;3.70;;
59585;SDS011;45408;52.686;7.310;2024-03-02T07:57:08;6.88;;;3.67;;
59585;SDS011;45408;52.686;7.310;2024-03-02T07:59:35;10.60;;;3.45;;
59585;SDS011;45408;52.686;7.310;2024-03-02T08:02:01;8.10;;;4.45;;
59585;SDS011;45408;52.686;7.310;2024-03-02T08:04:28;7.20;;;4.35;;
59585;SDS011;45408;52.686;7.310;2024-03-02T08:06:54;6.80;;;3.90;;
59585;SDS011;45408;52.686;7.310;2024-03-02T08:09:21;6.68;;;4.20;;
59585;SDS011;45408;52.686;7.310;2024-03-02T08:11:48;7.10;;;4.00;;
59585;SDS011;45408;52.686;7.310;2024-03-02T08:14:14;5.13;;;3.40;;
59585;SDS011;45408;52.686;7.310;2024-03-02T08:16:41;6.38;;;4.10;;
59585;SDS011;45408;52.686;7.310;2024-03-02T08:19:07;5.15;;;3.70;;
59585;SDS011;45408;52.686;7.310;2024-03-02T08:21:35;7.72;;;3.97;;
59585;SDS011;45408;52.686;7.310;2024-03-02T08:24:02;4.80;;;3.40;;
59585;SDS011;45408;52.686;7.310;2024-03-02T08:26:28;5.53;;;3.70;;
59585;SDS011;45408;52.686;7.310;2024-03-02T08:28:58;4.03;;;3.38;;
59585;SDS011;45408;52.686;7.310;2024-03-02T08:31:25;9.90;;;5.07;;
59585;SDS011;45408;52.686;7.310;2024-03-02T08:33:51;6.70;;;3.80;;
59585;SDS011;45408;52.686;7.310;2024-03-02T08:36:18;7.40;;;3.97;;
59585;SDS011;45408;52.686;7.310;2024-03-02T08:38:45;7.45;;;4.90;;
59585;SDS011;45408;52.686;7.310;2024-03-02T08:41:13;6.68;;;3.70;;
59585;SDS011;45408;52.686;7.310;2024-03-02T08:43:40;6.25;;;3.75;;
59585;SDS011;45408;52.686;7.310;2024-03-02T08:46:08;8.18;;;3.55;;
59585;SDS011;45408;52.686;7.310;2024-03-02T08:48:34;7.80;;;4.10;;
59585;SDS011;45408;52.686;7.310;2024-03-02T08:51:01;4.20;;;3.47;;
59585;SDS011;45408;52.686;7.310;2024-03-02T08:53:30;7.00;;;4.03;;
59585;SDS011;45408;52.686;7.310;2024-03-02T08:55:57;8.05;;;4.82;;
59585;SDS011;45408;52.686;7.310;2024-03-02T09:00:52;6.05;;;3.60;;
59585;SDS011;45408;52.686;7.310;2024-03-02T09:03:19;8.80;;;3.42;;
59585;SDS011;45408;52.686;7.310;2024-03-02T09:05:45;7.35;;;3.40;;
59585;SDS011;45408;52.686;7.310;2024-03-02T09:08:12;5.90;;;3.50;;
59585;SDS011;45408;52.686;7.310;2024-03-02T09:10:39;6.20;;;4.00;;
59585;SDS011;45408;52.686;7.310;2024-03-02T09:13:06;7.40;;;3.72;;
59585;SDS011;45408;52.686;7.310;2024-03-02T09:15:32;6.03;;;3.25;;
59585;SDS011;45408;52.686;7.310;2024-03-02T09:18:02;6.72;;;3.65;;
59585;SDS011;45408;52.686;7.310;2024-03-02T09:20:29;5.13;;;3.83;;
59585;SDS011;45408;52.686;7.310;2024-03-02T09:22:56;6.70;;;4.18;;
59585;SDS011;45408;52.686;7.310;2024-03-02T09:25:22;5.07;;;3.17;;
59585;SDS011;45408;52.686;7.310;2024-03-02T09:27:49;5.50;;;3.42;;
59585;SDS011;45408;52.686;7.310;2024-03-02T09:30:15;6.97;;;3.35;;
59585;SDS011;45408;52.686;7.310;2024-03-02T09:32:42;4.93;;;3.08;;
59585;SDS011;45408;52.686;7.310;2024-03-02T09:35:10;6.40;;;3.80;;
59585;SDS011;45408;52.686;7.310;2024-03-02T09:37:38;4.93;;;3.40;;
59585;SDS011;45408;52.686;7.310;2024-03-02T09:40:04;7.07;;;3.92;;
59585;SDS011;45408;52.686;7.310;2024-03-02T09:42:32;6.97;;;3.65;;
59585;SDS011;45408;52.686;7.310;2024-03-02T09:44:59;6.13;;;3.50;;
59585;SDS011;45408;52.686;7.310;2024-03-02T09:47:25;4.70;;;3.00;;
59585;SDS011;45408;52.686;7.310;2024-03-02T09:49:52;5.25;;;3.65;;
59585;SDS011;45408;52.686;7.310;2024-03-02T09:52:18;6.70;;;2.70;;
59585;SDS011;45408;52.686;7.310;2024-03-02T09:54:47;3.97;;;2.88;;
59585;SDS011;45408;52.686;7.310;2024-03-02T09:57:14;5.03;;;2.67;;
59585;SDS011;45408;52.686;7.310;2024-03-02T09:59:41;3.67;;;2.70;;
59585;SDS011;45408;52.686;7.310;2024-03-02T10:02:07;7.20;;;3.72;;
59585;SDS011;45408;52.686;7.310;2024-03-02T10:04:34;6.10;;;3.10;;
59585;SDS011;45408;52.686;7.310;2024-03-02T10:07:10;5.68;;;3.40;;
59585;SDS011;45408;52.686;7.310;2024-03-02T10:09:38;5.38;;;2.95;;
59585;SDS011;45408;52.686;7.310;2024-03-02T10:12:05;4.70;;;2.83;;
59585;SDS011;45408;52.686;7.310;2024-03-02T10:14:33;7.28;;;2.50;;
59585;SDS011;45408;52.686;7.310;2024-03-02T10:17:03;5.85;;;2.60;;
59585;SDS011;45408;52.686;7.310;2024-03-02T10:19:31;4.03;;;1.77;;
59585;SDS011;45408;52.686;7.310;2024-03-02T10:21:59;4.95;;;2.05;;
59585;SDS011;45408;52.686;7.310;2024-03-02T10:24:42;3.78;;;2.38;;
59585;SDS011;45408;52.686;7.310;2024-03-02T10:29:42;2.90;;;1.80;;
59585;SDS011;45408;52.686;7.310;2024-03-02T10:32:09;3.30;;;2.08;;
59585;SDS011;45408;52.686;7.310;2024-03-02T10:34:41;5.80;;;2.42;;
59585;SDS011;45408;52.686;7.310;2024-03-02T10:37:11;4.18;;;2.22;;
59585;SDS011;45408;52.686;7.310;2024-03-02T10:39:39;4.75;;;2.33;;
59585;SDS011;45408;52.686;7.310;2024-03-02T10:42:07;3.40;;;2.10;;
59585;SDS011;45408;52.686;7.310;2024-03-02T10:44:33;5.07;;;3.13;;
59585;SDS011;45408;52.686;7.310;2024-03-02T10:47:01;4.72;;;2.10;;
59585;SDS011;45408;52.686;7.310;2024-03-02T10:49:30;3.42;;;2.33;;
59585;SDS011;45408;52.686;7.310;2024-03-02T10:51:58;4.87;;;1.97;;
59585;SDS011;45408;52.686;7.310;2024-03-02T10:54:25;8.10;;;2.70;;
59585;SDS011;45408;52.686;7.310;2024-03-02T10:56:53;5.13;;;2.40;;
59585;SDS011;45408;52.686;7.310;2024-03-02T10:59:36;6.45;;;2.70;;
59585;SDS011;45408;52.686;7.310;2024-03-02T11:02:05;3.28;;;2.33;;
59585;SDS011;45408;52.686;7.310;2024-03-02T11:04:34;4.50;;;2.90;;
59585;SDS011;45408;52.686;7.310;2024-03-02T11:07:02;8.40;;;4.20;;
59585;SDS011;45408;52.686;7.310;2024-03-02T11:09:34;6.15;;;3.85;;
59585;SDS011;45408;52.686;7.310;2024-03-02T11:12:03;5.68;;;3.78;;
59585;SDS011;45408;52.686;7.310;2024-03-02T11:14:42;4.57;;;2.97;;
59585;SDS011;45408;52.686;7.310;2024-03-02T11:17:13;6.03;;;3.83;;
59585;SDS011;45408;52.686;7.310;2024-03-02T11:19:41;4.88;;;3.13;;
59585;SDS011;45408;52.686;7.310;2024-03-02T11:22:09;6.43;;;3.47;;
59585;SDS011;45408;52.686;7.310;2024-03-02T11:24:36;6.15;;;3.38;;
59585;SDS011;45408;52.686;7.310;2024-03-02T11:27:05;5.10;;;2.90;;
59585;SDS011;45408;52.686;7.310;2024-03-02T11:32:02;4.50;;;2.83;;
59585;SDS011;45408;52.686;7.310;2024-03-02T11:34:32;5.40;;;2.65;;
59585;SDS011;45408;52.686;7.310;2024-03-02T11:37:03;6.07;;;2.75;;
59585;SDS011;45408;52.686;7.310;2024-03-02T11:39:30;6.03;;;3.00;;
59585;SDS011;45408;52.686;7.310;2024-03-02T11:41:57;5.90;;;2.50;;
59585;SDS011;45408;52.686;7.310;2024-03-02T11:44:26;3.60;;;2.60;;
59585;SDS011;45408;52.686;7.310;2024-03-02T11:46:59;4.50;;;3.13;;
59585;SDS011;45408;52.686;7.310;2024-03-02T11:52:06;4.97;;;3.50;;
59585;SDS011;45408;52.686;7.310;2024-03-02T11:54:33;5.13;;;3.25;;
59585;SDS011;45408;52.686;7.310;2024-03-02T11:57:01;4.75;;;2.75;;
59585;SDS011;45408;52.686;7.310;2024-03-02T11:59:29;3.78;;;2.65;;
59585;SDS011;45408;52.686;7.310;2024-03-02T12:01:56;4.65;;;2.75;;
59585;SDS011;45408;52.686;7.310;2024-03-02T12:04:24;5.05;;;2.38;;
59585;SDS011;45408;52.686;7.310;2024-03-02T12:06:57;3.60;;;2.08;;
59585;SDS011;45408;52.686;7.310;2024-03-02T12:09:28;3.35;;;2.20;;
59585;SDS011;45408;52.686;7.310;2024-03-02T12:12:01;3.05;;;1.90;;
59585;SDS011;45408;52.686;7.310;2024-03-02T12:14:32;4.68;;;2.45;;
59585;SDS011;45408;52.686;7.310;2024-03-02T12:16:59;5.57;;;1.92;;
59585;SDS011;45408;52.686;7.310;2024-03-02T12:19:26;4.13;;;2.20;;
59585;SDS011;45408;52.686;7.310;2024-03-02T12:21:53;3.67;;;2.17;;
59585;SDS011;45408;52.686;7.310;2024-03-02T12:24:20;4.75;;;1.80;;
59585;SDS011;45408;52.686;7.310;2024-03-02T12:26:49;3.37;;;2.37;;
59585;SDS011;45408;52.686;7.310;2024-03-02T12:29:16;4.93;;;2.47;;
59585;SDS011;45408;52.686;7.310;2024-03-02T12:31:45;4.30;;;2.22;;
59585;SDS011;45408;52.686;7.310;2024-03-02T12:34:15;4.63;;;2.40;;
59585;SDS011;45408;52.686;7.310;2024-03-02T12:36:42;3.55;;;2.00;;
59585;SDS011;45408;52.686;7.310;2024-03-02T12:39:09;2.95;;;1.98;;
59585;SDS011;45408;52.686;7.310;2024-03-02T12:41:36;4.03;;;2.42;;
59585;SDS011;45408;52.686;7.310;2024-03-02T12:44:06;4.50;;;2.20;;
59585;SDS011;45408;52.686;7.310;2024-03-02T12:46:32;4.68;;;2.33;;
59585;SDS011;45408;52.686;7.310;2024-03-02T12:49:04;3.83;;;2.17;;
59585;SDS011;45408;52.686;7.310;2024-03-02T12:51:35;5.35;;;2.20;;
59585;SDS011;45408;52.686;7.310;2024-03-02T12:54:01;4.53;;;2.40;;
59585;SDS011;45408;52.686;7.310;2024-03-02T12:56:29;3.72;;;2.30;;
59585;SDS011;45408;52.686;7.310;2024-03-02T12:58:56;4.43;;;2.20;;
59585;SDS011;45408;52.686;7.310;2024-03-02T13:01:23;3.25;;;2.40;;
59585;SDS011;45408;52.686;7.310;2024-03-02T13:03:50;4.32;;;2.13;;
59585;SDS011;45408;52.686;7.310;2024-03-02T13:06:23;4.18;;;2.20;;
59585;SDS011;45408;52.686;7.310;2024-03-02T13:08:50;5.55;;;2.22;;
59585;SDS011;45408;52.686;7.310;2024-03-02T13:11:17;2.67;;;1.88;;
59585;SDS011;45408;52.686;7.310;2024-03-02T13:13:45;3.60;;;2.40;;
59585;SDS011;45408;52.686;7.310;2024-03-02T13:16:11;3.90;;;2.38;;
59585;SDS011;45408;52.686;7.310;2024-03-02T13:18:44;3.72;;;2.28;;
59585;SDS011;45408;52.686;7.310;2024-03-02T13:21:11;4.93;;;2.58;;
59585;SDS011;45408;52.686;7.310;2024-03-02T13:23:37;6.13;;;2.80;;
59585;SDS011;45408;52.686;7.310;2024-03-02T13:26:04;5.22;;;2.85;;
59585;SDS011;45408;52.686;7.310;2024-03-02T13:28:30;4.60;;;2.90;;
59585;SDS011;45408;52.686;7.310;2024-03-02T13:30:57;3.63;;;2.47;;
59585;SDS011;45408;52.686;7.310;2024-03-02T13:33:24;3.45;;;2.05;;
59585;SDS011;45408;52.686;7.310;2024-03-02T13:35:51;6.65;;;2.20;;
59585;SDS011;45408;52.686;7.310;2024-03-02T13:38:19;6.78;;;2.30;;
59585;SDS011;45408;52.686;7.310;2024-03-02T13:40:46;2.72;;;2.08;;
59585;SDS011;45408;52.686;7.310;2024-03-02T13:43:17;3.28;;;2.33;;
59585;SDS011;45408;52.686;7.310;2024-03-02T13:45:45;6.13;;;2.33;;
59585;SDS011;45408;52.686;7.310;2024-03-02T13:48:11;4.00;;;2.00;;
59585;SDS011;45408;52.686;7.310;2024-03-02T13:50:38;2.55;;;2.17;;
59585;SDS011;45408;52.686;7.310;2024-03-02T13:53:04;3.75;;;2.13;;
59585;SDS011;45408;52.686;7.310;2024-03-02T13:55:32;3.47;;;2.35;;
59585;SDS011;45408;52.686;7.310;2024-03-02T13:57:59;5.75;;;2.53;;
59585;SDS011;45408;52.686;7.310;2024-03-02T14:00:26;2.50;;;1.85;;
59585;SDS011;45408;52.686;7.310;2024-03-02T14:02:52;2.35;;;1.70;;
59585;SDS011;45408;52.686;7.310;2024-03-02T14:05:19;3.17;;;2.15;;
59585;SDS011;45408;52.686;7.310;2024-03-02T14:07:45;3.03;;;2.30;;
59585;SDS011;45408;52.686;7.310;2024-03-02T14:10:12;5.53;;;2.63;;
59585;SDS011;45408;52.686;7.310;2024-03-02T14:12:40;3.67;;;2.08;;
59585;SDS011;45408;52.686;7.310;2024-03-02T14:15:07;3.47;;;2.10;;
59585;SDS011;45408;52.686;7.310;2024-03-02T14:17:33;3.10;;;2.10;;
59585;SDS011;45408;52.686;7.310;2024-03-02T14:20:00;4.72;;;2.22;;
59585;SDS011;45408;52.686;7.310;2024-03-02T14:22:27;3.03;;;2.00;;
59585;SDS011;45408;52.686;7.310;2024-03-02T14:24:53;4.63;;;2.28;;
59585;SDS011;45408;52.686;7.310;2024-03-02T14:27:20;9.60;;;4.18;;
59585;SDS011;45408;52.686;7.310;2024-03-02T14:30:03;3.25;;;2.40;;
59585;SDS011;45408;52.686;7.310;2024-03-02T14:32:31;2.43;;;1.60;;
59585;SDS011;45408;52.686;7.310;2024-03-02T14:34:58;5.03;;;1.90;;
59585;SDS011;45408;52.686;7.310;2024-03-02T14:37:24;4.47;;;2.35;;
59585;SDS011;45408;52.686;7.310;2024-03-02T14:39:51;4.78;;;2.88;;
59585;SDS011;45408;52.686;7.310;2024-03-02T14:42:17;4.68;;;3.22;;
59585;SDS011;45408;52.686;7.310;2024-03-02T14:44:44;5.13;;;3.58;;
59585;SDS011;45408;52.686;7.310;2024-03-02T14:47:10;6.10;;;4.20;;
59585;SDS011;45408;52.686;7.310;2024-03-02T14:49:37;5.32;;;2.40;;
59585;SDS011;45408;52.686;7.310;2024-03-02T14:52:06;4.68;;;1.83;;
59585;SDS011;45408;52.686;7.310;2024-03-02T14:54:34;2.50;;;1.75;;
59585;SDS011;45408;52.686;7.310;2024-03-02T14:57:01;8.70;;;3.92;;
59585;SDS011;45408;52.686;7.310;2024-03-02T14:59:29;6.10;;;2.20;;
59585;SDS011;45408;52.686;7.310;2024-03-02T15:01:56;4.18;;;2.50;;